Time;durP1;ratioP1;P1;durP2;ratioP2;P2;SDS_P1;SDS_P2;PMS_P1;PMS_P2;Temp;Humidity;BMP_temperature;BMP_pressure;BME280_temperature;BME280_humidity;BME280_pressure;Samples;Min_cycle;Max_cycle;Signal;HPM_P1;HPM_P2
2022/06/03 00:01:22;;;;;;;;;3.00;3.00;;;;;34.86;17.68;101032.00;5088796;27;45369;-75
2022/06/03 00:04:22;;;;;;;;;3.33;3.33;;;;;34.90;17.35;101034.56;5098206;27;45407;-74
2022/06/03 00:07:30;;;;;;;;;5.00;4.00;;;;;34.76;17.74;101041.13;5114574;27;45398;-75
2022/06/03 00:10:15;;;;;;;;;6.00;5.00;;;;;34.69;17.66;101035.22;5098500;27;45304;-75
2022/06/03 00:12:44;;;;;;;;;4.00;4.00;;;;;34.68;17.97;101033.44;5098148;27;46135;-75
2022/06/03 00:15:34;;;;;;;;;3.00;3.00;;;;;34.67;17.90;101037.19;5098429;27;45718;-75
2022/06/03 00:18:02;;;;;;;;;7.00;5.00;;;;;34.61;17.60;101024.78;5097760;27;45491;-75
2022/06/03 00:20:36;;;;;;;;;5.00;3.33;;;;;34.58;17.78;101014.00;5098410;27;45330;-75
2022/06/03 00:23:21;;;;;;;;;3.33;3.33;;;;;34.56;17.71;101018.78;5097921;27;46277;-75
2022/06/03 00:25:52;;;;;;;;;3.00;2.00;;;;;34.53;17.67;101021.78;5098325;27;45282;-74
2022/06/03 00:28:36;;;;;;;;;3.00;3.00;;;;;34.55;17.69;101028.03;5098168;27;45378;-75
2022/06/03 00:31:12;;;;;;;;;4.33;3.00;;;;;34.47;17.68;101023.13;5098045;27;45566;-75
2022/06/03 00:33:49;;;;;;;;;3.00;3.00;;;;;34.47;17.57;101027.75;5097956;27;46532;-75
2022/06/03 00:36:35;;;;;;;;;3.00;3.00;;;;;34.54;17.94;101026.25;5097648;27;45518;-75
2022/06/03 00:39:13;;;;;;;;;2.00;2.00;;;;;34.51;17.98;101010.84;5098023;27;45401;-75
2022/06/03 00:41:44;;;;;;;;;3.00;3.00;;;;;34.48;17.69;101018.50;5098150;27;45308;-75
2022/06/03 00:44:40;;;;;;;;;3.00;3.00;;;;;34.56;17.73;101010.50;5097515;27;46125;-75
2022/06/03 00:47:28;;;;;;;;;4.00;3.00;;;;;34.46;17.52;101002.09;5097439;27;45189;-75
2022/06/03 00:50:02;;;;;;;;;3.00;3.00;;;;;34.56;17.95;101010.50;5096457;27;45405;-75
2022/06/03 00:52:36;;;;;;;;;3.00;3.00;;;;;34.51;17.93;101018.25;5097899;27;45210;-74
2022/06/03 00:55:39;;;;;;;;;4.00;4.00;;;;;34.48;17.74;101021.25;5097344;27;45482;-75
2022/06/03 00:58:32;;;;;;;;;4.00;4.00;;;;;34.55;17.92;101018.91;5097629;27;45221;-75
2022/06/03 01:01:03;;;;;;;;;3.00;3.00;;;;;34.50;17.69;101014.63;5097365;27;45487;-75
2022/06/03 01:03:48;;;;;;;;;4.00;4.00;;;;;34.40;17.43;101019.06;5097863;27;45316;-74
2022/06/03 01:06:42;;;;;;;;;3.00;3.00;;;;;34.34;17.62;101019.56;5097366;27;45384;-75
2022/06/03 01:09:43;;;;;;;;;4.00;4.00;;;;;34.31;18.03;101009.66;5097211;27;45317;-74
2022/06/03 01:12:16;;;;;;;;;3.33;3.33;;;;;34.32;17.51;101010.56;5097253;27;45503;-74
2022/06/03 01:14:53;;;;;;;;;2.33;2.33;;;;;34.39;17.76;101006.31;5097209;27;45427;-75
2022/06/03 01:17:36;;;;;;;;;5.00;3.00;;;;;34.17;17.54;100991.41;5096969;27;46710;-74
2022/06/03 01:20:10;;;;;;;;;4.33;3.00;;;;;34.37;17.74;101008.31;5097104;27;45399;-74
2022/06/03 01:23:04;;;;;;;;;3.00;3.00;;;;;34.31;17.81;101006.91;5096987;27;45415;-74
2022/06/03 01:25:44;;;;;;;;;4.00;2.33;;;;;34.43;17.65;101017.97;5081388;27;45356;-74
2022/06/03 01:28:36;;;;;;;;;3.33;3.00;;;;;34.48;18.05;101026.75;5096853;27;45567;-74
2022/06/03 01:31:04;;;;;;;;;2.00;2.00;;;;;34.51;18.11;101016.34;5112617;27;45955;-74
2022/06/03 01:33:45;;;;;;;;;3.67;3.67;;;;;34.43;17.86;101013.34;5097143;27;45388;-74
2022/06/03 01:36:16;;;;;;;;;4.00;3.33;;;;;34.44;18.05;101022.47;5096912;27;45659;-74
2022/06/03 01:38:59;;;;;;;;;4.00;4.00;;;;;34.39;17.71;101009.06;5097000;27;45522;-74
2022/06/03 01:41:52;;;;;;;;;5.00;3.33;;;;;34.39;17.60;101005.41;5096710;27;45445;-74
2022/06/03 01:44:39;;;;;;;;;4.33;3.33;;;;;34.39;18.07;101009.06;5096395;27;45544;-74
2022/06/03 01:47:16;;;;;;;;;3.00;3.00;;;;;34.37;18.19;101005.53;5096752;27;45566;-74
2022/06/03 01:49:51;;;;;;;;;4.00;4.00;;;;;34.31;17.71;101003.28;5096463;27;46199;-74
2022/06/03 01:52:38;;;;;;;;;1.67;1.67;;;;;34.21;17.85;100993.94;5096670;27;45514;-74
2022/06/03 01:55:24;;;;;;;;;4.33;3.00;;;;;34.30;17.91;100994.13;5095298;27;45379;-74
2022/06/03 01:58:20;;;;;;;;;0.00;0.00;;;;;34.18;18.12;100998.69;5096935;27;45306;-74
2022/06/03 02:00:54;;;;;;;;;1.00;1.00;;;;;34.08;18.43;100969.22;5096516;27;45635;-74
2022/06/03 02:03:55;;;;;;;;;3.00;3.00;;;;;34.12;18.70;100985.41;5096264;27;45441;-74
2022/06/03 02:07:01;;;;;;;;;4.00;3.00;;;;;34.08;18.23;100985.72;5053437;28;45394;-74
2022/06/03 02:10:04;;;;;;;;;3.00;3.00;;;;;34.14;18.34;100986.16;5053771;28;45526;-74
2022/06/03 02:12:53;;;;;;;;;4.00;4.00;;;;;34.01;18.58;100964.19;5053238;28;46136;-74
2022/06/03 02:15:35;;;;;;;;;3.00;3.00;;;;;33.85;18.33;100953.50;5053456;28;45573;-74
2022/06/03 02:18:25;;;;;;;;;5.00;4.00;;;;;34.02;18.98;100971.47;5053217;28;45391;-74
2022/06/03 02:21:35;;;;;;;;;3.67;3.67;;;;;33.78;18.52;100960.44;5053513;28;45602;-74
2022/06/03 02:24:40;;;;;;;;;4.00;4.00;;;;;33.77;18.92;100964.19;5053141;28;45374;-74
2022/06/03 02:27:24;;;;;;;;;4.00;4.00;;;;;33.78;18.77;100957.69;5052816;28;45379;-74
2022/06/03 02:30:30;;;;;;;;;3.00;3.00;;;;;33.72;18.88;100938.00;5053435;28;45404;-74
2022/06/03 02:33:17;;;;;;;;;3.00;3.00;;;;;33.87;18.43;100941.47;5052751;28;45244;-74
2022/06/03 02:36:16;;;;;;;;;3.00;3.00;;;;;33.96;18.21;100935.28;5034983;28;47336;-74
2022/06/03 02:38:56;;;;;;;;;5.00;5.00;;;;;33.95;18.31;100939.00;5053040;28;45406;-74
2022/06/03 02:41:46;;;;;;;;;4.67;4.00;;;;;33.85;18.64;100930.56;5052977;28;45847;-74
2022/06/03 02:44:31;;;;;;;;;4.00;4.00;;;;;33.77;18.50;100927.53;5088933;27;45561;-75
2022/06/03 02:47:37;;;;;;;;;2.00;2.00;;;;;33.80;18.76;100933.69;5082779;27;45850;-75
2022/06/03 02:50:40;;;;;;;;;4.00;4.00;;;;;33.63;18.73;100914.78;5093366;27;45401;-74
2022/06/03 02:53:23;;;;;;;;;4.00;3.33;;;;;33.68;19.00;100918.09;5093717;27;45406;-74
2022/06/03 02:56:23;;;;;;;;;4.00;3.00;;;;;33.71;18.61;100916.97;5096080;27;45489;-74
2022/06/03 02:59:16;;;;;;;;;4.33;3.00;;;;;33.76;18.44;100925.81;5095724;27;45413;-74
2022/06/03 03:02:19;;;;;;;;;3.00;3.00;;;;;33.81;18.40;100926.31;5095577;27;45379;-74
2022/06/03 03:05:02;;;;;;;;;3.67;3.67;;;;;33.78;18.76;100905.41;5096097;27;45326;-74
2022/06/03 03:07:55;;;;;;;;;4.00;4.00;;;;;33.89;18.80;100914.72;5095809;27;45448;-74
2022/06/03 03:10:35;;;;;;;;;4.00;4.00;;;;;33.93;18.74;100928.13;5095515;27;45294;-74
2022/06/03 03:13:48;;;;;;;;;3.00;3.00;;;;;33.92;18.75;100922.72;5095344;27;45503;-74
2022/06/03 03:16:37;;;;;;;;;4.67;4.00;;;;;33.83;18.77;100900.44;5094096;27;45406;-78
2022/06/03 03:19:44;;;;;;;;;4.00;4.00;;;;;33.87;18.39;100928.59;5095487;27;45664;-74
2022/06/03 03:22:40;;;;;;;;;4.67;3.00;;;;;33.76;18.56;100912.03;5095165;27;45591;-75
2022/06/03 03:25:27;;;;;;;;;3.00;3.00;;;;;33.79;18.71;100912.66;5095216;27;45180;-74
2022/06/03 03:28:04;;;;;;;;;3.00;3.00;;;;;33.84;18.66;100926.97;5095754;27;45273;-74
2022/06/03 03:30:39;;;;;;;;;2.33;2.33;;;;;33.81;18.80;100918.06;5095310;27;45450;-74
2022/06/03 03:33:27;;;;;;;;;2.00;2.00;;;;;33.80;19.08;100930.94;5095101;27;46315;-74
2022/06/03 03:36:04;;;;;;;;;3.00;3.00;;;;;33.71;18.91;100931.59;5095384;27;45483;-74
2022/06/03 03:38:55;;;;;;;;;3.67;3.67;;;;;33.73;18.64;100925.97;5095314;27;45445;-74
2022/06/03 03:41:52;;;;;;;;;5.67;3.00;;;;;33.82;18.91;100931.69;5095072;27;45481;-74
2022/06/03 03:44:31;;;;;;;;;4.00;3.00;;;;;33.76;18.55;100926.66;5093603;27;47277;-73
2022/06/03 03:47:23;;;;;;;;;3.00;2.00;;;;;33.76;18.83;100934.06;5113295;27;45405;-75
2022/06/03 03:49:57;;;;;;;;;4.33;3.00;;;;;33.71;19.18;100938.97;5055672;28;45519;-75
2022/06/03 03:52:34;;;;;;;;;3.67;3.67;;;;;33.65;19.15;100929.31;5055707;28;45677;-76
2022/06/03 03:55:18;;;;;;;;;4.00;4.00;;;;;33.59;19.04;100919.66;5055246;28;45417;-75
2022/06/03 03:57:49;;;;;;;;;5.00;4.00;;;;;33.55;19.18;100914.53;5055645;28;45403;-75
2022/06/03 04:00:18;;;;;;;;;3.00;3.00;;;;;33.48;19.37;100911.34;5055553;28;45407;-77
2022/06/03 04:03:14;;;;;;;;;3.67;3.67;;;;;33.44;19.06;100916.19;5055597;28;46193;-75
2022/06/03 04:06:07;;;;;;;;;4.33;3.67;;;;;33.51;19.30;100911.09;5055556;28;45458;-75
2022/06/03 04:08:49;;;;;;;;;4.00;4.00;;;;;33.47;18.82;100906.84;5055533;28;45515;-76
2022/06/03 04:11:33;;;;;;;;;3.00;3.00;;;;;33.60;19.20;100923.28;5038503;28;45968;-77
2022/06/03 04:14:19;;;;;;;;;3.00;3.00;;;;;33.57;19.45;100918.03;5055412;28;45590;-75
2022/06/03 04:17:02;;;;;;;;;3.00;3.00;;;;;33.57;19.12;100909.78;5038090;28;46586;-74
2022/06/03 04:19:49;;;;;;;;;3.00;3.00;;;;;33.64;19.05;100924.81;5055091;28;45292;-74
2022/06/03 04:22:44;;;;;;;;;4.33;3.00;;;;;33.66;19.46;100926.44;5055016;28;45439;-74
2022/06/03 04:25:36;;;;;;;;;3.00;3.00;;;;;33.71;19.48;100928.84;5054975;28;45558;-74
2022/06/03 04:28:19;;;;;;;;;4.00;4.00;;;;;33.77;19.30;100928.44;5098061;27;46651;-74
2022/06/03 04:31:03;;;;;;;;;5.33;4.33;;;;;33.77;19.48;100916.53;5098075;27;45373;-74
2022/06/03 04:33:51;;;;;;;;;3.00;3.00;;;;;33.77;19.44;100913.78;5096496;27;45483;-75
2022/06/03 04:36:23;;;;;;;;;4.33;4.33;;;;;33.70;19.55;100916.09;5097898;27;45535;-76
2022/06/03 04:39:43;;;;;;;;;4.00;4.00;;;;;33.64;19.54;100903.69;5097571;27;46029;-77
2022/06/03 04:42:46;;;;;;;;;4.00;4.00;;;;;33.69;19.18;100925.34;5097895;27;45680;-74
2022/06/03 04:45:49;;;;;;;;;4.00;4.00;;;;;33.66;19.71;100931.97;5097952;27;45281;-74
2022/06/03 04:48:46;;;;;;;;;4.00;3.00;;;;;33.35;19.32;100886.66;5097395;27;45663;-74
2022/06/03 04:51:28;;;;;;;;;4.00;4.00;;;;;33.42;19.15;100900.78;5097261;27;46523;-74
2022/06/03 04:54:46;;;;;;;;;4.00;4.00;;;;;33.66;18.97;100931.09;5096676;27;45501;-74
2022/06/03 04:57:30;;;;;;;;;5.00;5.00;;;;;33.71;19.63;100923.34;5083999;27;45446;-74
2022/06/03 05:00:21;;;;;;;;;2.67;2.67;;;;;33.72;18.82;100927.84;5094889;27;45433;-74
2022/06/03 05:03:34;;;;;;;;;4.67;3.67;;;;;33.69;19.07;100934.47;5095697;27;45623;-73
2022/06/03 05:06:30;;;;;;;;;4.00;4.00;;;;;33.84;19.23;100937.97;5075070;28;45497;-74
2022/06/03 05:09:33;;;;;;;;;5.33;4.00;;;;;33.98;19.13;100933.25;5075101;28;45462;-74
2022/06/03 05:12:23;;;;;;;;;3.00;3.00;;;;;33.95;18.90;100936.25;5075072;27;45446;-73
2022/06/03 05:15:20;;;;;;;;;4.00;4.00;;;;;33.85;19.26;100914.97;5081196;27;45470;-74
2022/06/03 05:18:18;;;;;;;;;3.67;3.67;;;;;33.93;19.37;100919.88;5095466;27;45495;-75
2022/06/03 05:21:14;;;;;;;;;5.00;3.00;;;;;33.95;18.96;100925.25;5095565;27;45370;-74
2022/06/03 05:23:59;;;;;;;;;5.00;4.00;;;;;34.10;19.03;100932.31;5093617;27;45470;-73
2022/06/03 05:26:52;;;;;;;;;5.00;5.00;;;;;34.07;19.03;100929.81;5074233;28;46674;-74
2022/06/03 05:29:39;;;;;;;;;4.67;4.67;;;;;34.14;19.52;100932.97;5057606;28;45374;-73
2022/06/03 05:32:41;;;;;;;;;4.00;4.00;;;;;34.16;18.86;100936.47;5074859;28;45431;-73
2022/06/03 05:35:06;;;;;;;;;4.00;4.00;;;;;34.22;19.29;100938.75;5074842;28;45424;-73
2022/06/03 05:37:43;;;;;;;;;4.67;4.67;;;;;34.23;19.37;100934.97;5056855;28;47299;-73
2022/06/03 05:40:42;;;;;;;;;7.67;5.00;;;;;34.22;19.28;100929.59;5074357;28;45426;-74
2022/06/03 05:43:50;;;;;;;;;4.33;4.00;;;;;34.16;19.15;100923.59;5094481;27;45612;-74
2022/06/03 05:46:24;;;;;;;;;4.67;4.67;;;;;34.10;19.29;100913.03;5112533;27;45499;-74
2022/06/03 05:49:08;;;;;;;;;5.00;5.00;;;;;34.17;19.36;100905.19;5096336;27;45696;-74
2022/06/03 05:52:10;;;;;;;;;4.00;4.00;;;;;34.22;19.10;100905.72;5095911;27;46049;-74
2022/06/03 05:54:51;;;;;;;;;5.00;5.00;;;;;34.24;19.28;100878.06;5112457;27;45479;-74
2022/06/03 05:57:23;;;;;;;;;4.00;4.00;;;;;34.48;18.88;100916.56;5096563;27;45329;-75
2022/06/03 06:00:18;;;;;;;;;5.67;5.67;;;;;34.47;19.09;100906.53;5098064;27;45416;-77
2022/06/03 06:03:02;;;;;;;;;6.67;5.00;;;;;34.52;19.01;100907.91;5105152;27;45292;-76
2022/06/03 06:05:55;;;;;;;;;3.00;3.00;;;;;34.61;19.06;100914.56;5116662;27;45356;-74
2022/06/03 06:08:28;;;;;;;;;5.33;4.00;;;;;34.53;19.19;100897.81;5113544;27;45608;-74
2022/06/03 06:11:15;;;;;;;;;4.33;4.33;;;;;34.62;19.15;100908.06;5095706;27;46302;-74
2022/06/03 06:14:18;;;;;;;;;4.00;4.00;;;;;34.68;19.13;100906.69;5074161;27;45347;-74
2022/06/03 06:16:45;;;;;;;;;5.00;5.00;;;;;34.65;19.32;100912.44;5052938;28;45527;-74
2022/06/03 06:19:37;;;;;;;;;5.00;5.00;;;;;34.63;19.31;100908.97;5036062;28;45571;-75
2022/06/03 06:22:05;;;;;;;;;5.00;5.00;;;;;34.69;19.13;100913.97;5052899;28;45607;-74
2022/06/03 06:24:46;;;;;;;;;5.00;5.00;;;;;34.59;19.32;100905.56;5074767;27;45548;-74
2022/06/03 06:27:31;;;;;;;;;5.33;5.33;;;;;34.69;19.19;100909.31;5093647;27;45301;-75
2022/06/03 06:30:24;;;;;;;;;5.00;5.00;;;;;34.79;19.28;100909.44;5092321;27;45282;-74
2022/06/03 06:33:23;;;;;;;;;6.00;6.00;;;;;34.95;19.63;100913.75;5076176;27;46411;-75
2022/06/03 06:36:23;;;;;;;;;7.00;7.00;;;;;34.88;19.27;100910.59;5093293;27;45419;-75
2022/06/03 06:39:19;;;;;;;;;7.33;6.33;;;;;34.99;19.09;100912.50;5061375;27;45467;-74
2022/06/03 06:42:11;;;;;;;;;10.67;9.00;;;;;35.02;19.31;100899.34;5069951;27;45542;-74
2022/06/03 06:44:54;;;;;;;;;11.33;11.33;;;;;34.99;19.50;100923.53;5055885;28;47758;-74
2022/06/03 06:47:28;;;;;;;;;13.00;12.67;;;;;35.10;19.48;100912.47;5055793;28;45534;-74
2022/06/03 06:50:13;;;;;;;;;9.33;8.67;;;;;35.09;19.34;100901.59;5072801;27;45365;-75
2022/06/03 06:53:11;;;;;;;;;8.67;8.33;;;;;35.20;19.39;100915.34;5061600;27;45514;-74
2022/06/03 06:56:01;;;;;;;;;8.00;7.67;;;;;35.39;19.54;100912.00;5091054;27;45591;-74
2022/06/03 06:58:43;;;;;;;;;6.67;6.33;;;;;35.42;19.31;100889.66;5095246;27;46905;-74
2022/06/03 07:01:12;;;;;;;;;7.00;6.00;;;;;35.54;19.46;100898.75;5075608;28;45518;-74
2022/06/03 07:03:54;;;;;;;;;6.00;5.00;;;;;35.69;19.28;100913.16;5074878;27;45548;-74
2022/06/03 07:06:57;;;;;;;;;7.00;6.00;;;;;35.75;19.31;100907.09;5090994;27;46445;-74
2022/06/03 07:09:28;;;;;;;;;5.33;5.33;;;;;35.75;19.38;100901.56;5064491;27;45494;-74
2022/06/03 07:12:02;;;;;;;;;8.00;7.00;;;;;35.63;19.40;100881.44;5082268;27;45281;-74
2022/06/03 07:14:31;;;;;;;;;6.67;6.67;;;;;35.73;19.31;100889.81;5095782;27;45349;-74
2022/06/03 07:20:09;;;;;;;;;7.00;7.00;;;;;36.00;19.44;100902.28;5095640;27;45405;-74
2022/06/03 07:22:43;;;;;;;;;8.00;5.33;;;;;36.06;19.31;100899.84;5098682;27;45445;-74
2022/06/03 07:25:31;;;;;;;;;4.67;4.67;;;;;36.15;19.68;100905.59;5098911;27;45496;-75
2022/06/03 07:28:24;;;;;;;;;6.67;6.67;;;;;36.21;19.31;100897.63;5097997;27;48415;-74
2022/06/03 07:31:04;;;;;;;;;6.00;6.00;;;;;36.08;19.57;100863.81;5099203;27;45344;-74
2022/06/03 07:33:29;;;;;;;;;6.00;6.00;;;;;36.37;19.02;100907.34;5098933;27;45417;-74
2022/06/03 07:36:04;;;;;;;;;7.33;5.00;;;;;36.40;19.41;100913.50;5115052;27;45355;-74
2022/06/03 07:38:45;;;;;;;;;5.67;5.67;;;;;36.42;19.24;100918.03;5103232;27;45345;-74
2022/06/03 07:41:34;;;;;;;;;6.33;6.33;;;;;36.56;19.14;100926.81;5078727;27;45540;-74
2022/06/03 07:44:12;;;;;;;;;7.00;7.00;;;;;36.57;19.43;100902.84;5078843;28;45425;-74
2022/06/03 07:46:49;;;;;;;;;7.33;7.33;;;;;36.74;19.20;100912.41;5077032;27;45431;-74
2022/06/03 07:49:16;;;;;;;;;9.00;6.67;;;;;36.72;19.10;100898.72;5090723;27;47071;-74
2022/06/03 07:51:47;;;;;;;;;6.00;6.00;;;;;36.72;19.21;100898.72;5098592;27;45436;-74
2022/06/03 07:54:34;;;;;;;;;7.33;6.67;;;;;36.67;19.16;100905.66;5098791;27;45187;-74
2022/06/03 07:57:20;;;;;;;;;7.00;7.00;;;;;36.83;19.44;100911.56;5098697;27;45375;-74
2022/06/03 07:59:45;;;;;;;;;8.00;8.00;;;;;36.73;19.21;100899.56;5114467;27;47308;-74
2022/06/03 08:02:11;;;;;;;;;8.00;6.00;;;;;36.84;19.27;100918.88;5098757;27;45459;-74
2022/06/03 08:04:37;;;;;;;;;6.00;6.00;;;;;36.85;19.14;100912.34;5098987;27;45591;-74
2022/06/03 08:12:38;;;;;;;;;8.00;8.00;;;;;36.99;19.42;100910.19;5103764;27;45337;-75
2022/06/03 08:15:16;;;;;;;;;7.00;6.00;;;;;37.07;19.38;100915.91;5097587;27;45359;-74
2022/06/03 08:17:44;;;;;;;;;7.00;7.00;;;;;37.02;19.69;100882.25;5098604;27;45912;-74
2022/06/03 08:20:10;;;;;;;;;7.33;7.33;;;;;37.07;19.77;100905.69;5098571;27;45516;-74
2022/06/03 08:22:37;;;;;;;;;6.00;6.00;;;;;37.14;19.64;100914.31;5106493;27;45305;-74
2022/06/03 08:25:03;;;;;;;;;10.67;8.00;;;;;37.12;19.20;100904.41;5119552;27;45444;-74
2022/06/03 08:27:35;;;;;;;;;8.00;6.67;;;;;37.03;19.72;100904.25;5117772;27;45351;-74
2022/06/03 08:30:10;;;;;;;;;7.00;7.00;;;;;37.22;19.68;100906.19;5118962;27;45445;-74
2022/06/03 08:32:43;;;;;;;;;8.00;7.33;;;;;37.28;19.25;100898.38;5116314;27;45433;-74
2022/06/03 08:35:15;;;;;;;;;9.67;7.00;;;;;37.32;19.40;100902.63;5119240;27;45468;-74
2022/06/03 08:37:41;;;;;;;;;7.33;7.00;;;;;37.42;19.97;100909.03;5119259;27;45440;-74
2022/06/03 08:40:43;;;;;;;;;7.67;7.67;;;;;37.54;19.74;100901.47;5102919;27;46654;-74
2022/06/03 08:43:48;;;;;;;;;7.67;7.67;;;;;37.63;19.35;100894.22;5096282;27;45660;-74
2022/06/03 08:46:21;;;;;;;;;9.67;8.00;;;;;37.35;19.70;100881.06;5103171;27;45352;-74
2022/06/03 08:48:50;;;;;;;;;10.00;7.67;;;;;37.43;20.22;100885.91;5109122;27;45446;-74
2022/06/03 08:51:40;;;;;;;;;10.67;9.00;;;;;37.49;19.32;100877.00;5098266;27;46533;-74
2022/06/03 08:54:27;;;;;;;;;9.00;9.00;;;;;37.50;19.54;100862.16;5077465;27;45393;-74
2022/06/03 08:56:57;;;;;;;;;7.67;7.67;;;;;37.62;19.65;100873.09;5077649;27;45607;-74
2022/06/03 08:59:34;;;;;;;;;9.00;9.00;;;;;37.83;20.14;100867.44;5077280;27;45403;-74
2022/06/03 09:02:06;;;;;;;;;7.00;7.00;;;;;37.93;19.67;100880.28;5077413;27;45461;-74
2022/06/03 09:04:40;;;;;;;;;10.00;10.00;;;;;37.93;19.56;100871.97;5081858;27;45536;-74
2022/06/03 09:07:18;;;;;;;;;7.00;6.67;;;;;37.85;20.28;100884.78;5098058;27;45397;-74
2022/06/03 09:09:51;;;;;;;;;11.00;8.00;;;;;37.98;20.37;100876.19;5111175;27;45467;-74
2022/06/03 09:12:44;;;;;;;;;8.67;7.67;;;;;38.00;19.56;100882.44;5105517;27;45533;-75
2022/06/03 09:15:17;;;;;;;;;9.00;9.00;;;;;38.12;19.96;100878.50;5097546;27;45485;-74
2022/06/03 09:17:42;;;;;;;;;7.67;7.00;;;;;38.04;19.70;100878.38;5097582;27;45411;-74
2022/06/03 09:20:14;;;;;;;;;9.00;8.00;;;;;38.16;20.26;100882.72;5097874;27;45471;-74
2022/06/03 09:22:40;;;;;;;;;8.00;8.00;;;;;38.25;19.96;100868.00;5097482;27;46507;-74
2022/06/03 09:25:11;;;;;;;;;10.00;8.67;;;;;38.37;19.76;100879.81;5097717;27;45378;-74
2022/06/03 09:27:37;;;;;;;;;12.33;9.33;;;;;38.41;19.85;100884.03;5097432;27;45533;-74
2022/06/03 09:30:06;;;;;;;;;8.67;8.67;;;;;38.58;20.10;100890.69;5097696;27;45970;-74
2022/06/03 09:32:38;;;;;;;;;12.00;10.33;;;;;38.60;19.80;100898.84;5097392;27;45521;-74
2022/06/03 09:35:11;;;;;;;;;12.67;12.00;;;;;38.61;20.45;100904.25;5097321;27;45423;-74
2022/06/03 09:37:43;;;;;;;;;10.33;10.00;;;;;38.55;19.96;100907.63;5097607;27;45467;-74
2022/06/03 09:40:15;;;;;;;;;13.67;13.67;;;;;38.50;19.79;100934.06;5097494;27;45238;-74
2022/06/03 09:42:59;;;;;;;;;9.00;9.00;;;;;38.37;19.99;100942.66;5096608;27;46229;-74
2022/06/03 09:45:26;;;;;;;;;10.00;10.00;;;;;38.19;20.49;100921.22;5096925;27;45290;-75
2022/06/03 09:47:52;;;;;;;;;12.00;11.00;;;;;38.39;20.56;100935.94;5097137;27;45387;-75
2022/06/03 09:50:21;;;;;;;;;9.33;9.00;;;;;38.34;19.96;100930.00;5112875;27;45481;-75
2022/06/03 09:52:48;;;;;;;;;8.67;8.67;;;;;38.49;19.77;100940.59;5096704;27;46475;-74
2022/06/03 09:55:31;;;;;;;;;13.33;10.00;;;;;38.43;20.10;100926.31;5097206;27;45610;-74
2022/06/03 09:57:59;;;;;;;;;11.00;9.00;;;;;38.52;20.25;100941.16;5095398;27;45493;-75
2022/06/03 10:00:29;;;;;;;;;9.33;9.33;;;;;38.60;20.32;100926.56;5096927;27;45752;-74
2022/06/03 10:02:56;;;;;;;;;10.00;10.00;;;;;38.53;20.09;100915.22;5101566;27;46181;-75
2022/06/03 10:05:23;;;;;;;;;11.67;11.00;;;;;38.63;20.24;100920.72;5117221;27;45562;-74
2022/06/03 10:07:59;;;;;;;;;10.00;10.00;;;;;38.71;19.92;100928.34;5107530;27;45366;-74
2022/06/03 10:13:09;;;;;;;;;10.33;10.33;;;;;38.82;20.86;100924.47;5095735;27;45700;-74
2022/06/03 10:15:38;;;;;;;;;12.33;11.33;;;;;38.72;20.83;100917.09;5096441;27;45426;-74
2022/06/03 10:18:29;;;;;;;;;10.00;10.00;;;;;38.76;21.11;100909.31;5094922;27;45448;-74
2022/06/03 10:20:58;;;;;;;;;13.00;11.33;;;;;38.92;20.99;100901.25;5096754;27;45809;-74
2022/06/03 10:23:31;;;;;;;;;11.00;10.00;;;;;39.06;20.45;100921.16;5096292;27;46791;-74
2022/06/03 10:26:01;;;;;;;;;11.00;11.00;;;;;39.14;20.51;100907.44;5095891;27;45519;-75
2022/06/03 10:28:32;;;;;;;;;12.33;11.00;;;;;39.31;20.39;100918.75;5096355;27;45385;-74
2022/06/03 10:31:01;;;;;;;;;15.33;13.00;;;;;39.25;20.81;100896.13;5096406;27;45402;-74
2022/06/03 10:33:27;;;;;;;;;12.67;12.67;;;;;39.33;20.39;100909.25;5096253;27;45500;-74
2022/06/03 10:35:56;;;;;;;;;12.00;12.00;;;;;39.41;21.15;100914.88;5096226;27;45534;-74
2022/06/03 10:38:22;;;;;;;;;10.33;9.00;;;;;39.48;20.82;100909.59;5094882;27;45528;-74
2022/06/03 10:40:49;;;;;;;;;10.00;10.00;;;;;39.50;21.16;100921.41;5105670;27;45615;-74
2022/06/03 10:43:25;;;;;;;;;10.67;10.33;;;;;39.54;20.70;100920.06;5116852;27;45372;-74
2022/06/03 10:45:50;;;;;;;;;12.00;11.33;;;;;39.53;20.96;100911.91;5116744;27;45289;-74
2022/06/03 10:48:25;;;;;;;;;13.00;11.67;;;;;39.68;21.09;100917.78;5111438;27;45420;-74
2022/06/03 10:50:51;;;;;;;;;10.00;10.00;;;;;39.76;20.65;100917.88;5095888;27;45433;-74
2022/06/03 11:01:55;;;;;;;;;11.00;11.00;;;;;40.05;20.57;100912.09;5053095;28;45466;-74
2022/06/03 11:04:27;;;;;;;;;11.67;11.67;;;;;40.16;20.44;100916.56;5035864;28;46706;-74
2022/06/03 11:06:53;;;;;;;;;13.00;11.67;;;;;40.18;20.65;100913.59;5052795;28;45565;-74
2022/06/03 11:09:19;;;;;;;;;11.00;11.00;;;;;40.23;20.22;100923.22;5052516;28;45461;-74
2022/06/03 11:11:50;;;;;;;;;11.33;10.00;;;;;40.33;20.37;100925.03;5035873;28;45559;-74
2022/06/03 11:14:41;;;;;;;;;11.00;11.00;;;;;40.39;20.11;100924.38;5050465;28;45324;-74
2022/06/03 11:17:09;;;;;;;;;11.00;11.00;;;;;40.20;20.24;100929.09;5049915;28;45546;-74
2022/06/03 11:19:39;;;;;;;;;11.00;10.00;;;;;39.96;20.70;100929.72;5052656;28;45638;-74
2022/06/03 11:22:14;;;;;;;;;8.67;8.67;;;;;39.95;20.67;100942.72;5052716;28;45450;-74
2022/06/03 11:24:40;;;;;;;;;12.67;11.33;;;;;40.03;20.94;100933.63;5051565;28;45478;-74
2022/06/03 11:27:11;;;;;;;;;9.00;9.00;;;;;39.94;20.84;100938.19;5052407;28;45500;-74
2022/06/03 11:29:40;;;;;;;;;10.67;9.00;;;;;39.88;20.55;100949.94;5052326;28;45500;-74
2022/06/03 11:32:10;;;;;;;;;10.33;10.00;;;;;39.60;20.70;100925.00;5056453;27;45589;-76
2022/06/03 11:34:50;;;;;;;;;9.33;9.00;;;;;39.45;20.89;100946.88;5094230;27;46499;-78
2022/06/03 11:37:24;;;;;;;;;10.00;10.00;;;;;39.23;21.16;100948.16;5094027;27;45346;-76
2022/06/03 11:39:53;;;;;;;;;12.00;11.00;;;;;39.05;21.74;100945.28;5095163;27;45433;-75
2022/06/03 11:42:58;;;;;;;;;11.00;11.00;;;;;39.30;21.61;100942.88;5093987;27;45481;-78
2022/06/03 11:45:38;;;;;;;;;11.00;11.00;;;;;39.30;21.37;100931.75;5034093;28;46439;-78
2022/06/03 11:48:13;;;;;;;;;10.67;9.33;;;;;39.36;21.88;100955.25;5037854;28;45577;-75
2022/06/03 11:50:38;;;;;;;;;10.33;10.33;;;;;39.33;21.67;100944.47;5032205;28;45619;-74
2022/06/03 11:53:04;;;;;;;;;8.33;8.33;;;;;39.40;21.96;100945.59;5037782;28;45577;-74
2022/06/03 11:55:32;;;;;;;;;11.67;9.00;;;;;39.62;21.31;100949.84;5034141;28;45471;-75
2022/06/03 11:58:12;;;;;;;;;10.33;10.33;;;;;39.63;21.56;100960.78;5019078;28;45540;-75
2022/06/03 12:00:49;;;;;;;;;11.00;11.00;;;;;39.63;21.88;100951.59;5051036;28;45468;-75
2022/06/03 12:03:45;;;;;;;;;10.67;10.00;;;;;39.68;21.92;100953.88;5036219;28;45535;-75
2022/06/03 12:06:23;;;;;;;;;10.00;10.00;;;;;39.59;21.72;100951.06;5052160;28;46472;-75
2022/06/03 12:08:56;;;;;;;;;9.33;9.00;;;;;39.57;21.88;100957.75;5055320;28;45480;-74
2022/06/03 12:14:35;;;;;;;;;9.00;9.00;;;;;39.43;22.05;100928.63;5055776;28;45425;-74
2022/06/03 12:17:26;;;;;;;;;8.67;8.67;;;;;39.39;22.04;100941.06;5049629;28;45635;-75
2022/06/03 12:19:53;;;;;;;;;10.00;9.00;;;;;39.28;21.77;100942.13;5080650;27;45318;-74
2022/06/03 12:22:30;;;;;;;;;10.33;10.00;;;;;39.33;21.42;100952.78;5116054;27;45516;-74
2022/06/03 12:24:57;;;;;;;;;11.33;10.67;;;;;39.28;21.74;100940.25;5111271;27;45627;-75
2022/06/03 12:27:27;;;;;;;;;11.00;10.00;;;;;39.40;21.44;100948.34;5097961;27;46202;-74
2022/06/03 12:30:02;;;;;;;;;11.00;11.00;;;;;39.52;21.90;100949.00;5098371;27;45537;-75
2022/06/03 12:32:29;;;;;;;;;11.33;11.33;;;;;39.39;21.93;100938.28;5092799;27;45416;-74
2022/06/03 12:35:32;;;;;;;;;10.67;10.33;;;;;39.39;21.88;100954.94;5098134;27;45359;-74
2022/06/03 12:38:18;;;;;;;;;9.00;8.67;;;;;39.00;22.01;100949.53;5098589;27;45464;-75
2022/06/03 12:40:45;;;;;;;;;8.00;8.00;;;;;38.86;22.24;100937.03;5096749;27;45417;-75
2022/06/03 12:43:25;;;;;;;;;15.33;10.33;;;;;38.94;22.61;100953.78;5098317;27;45440;-74
2022/06/03 12:46:08;;;;;;;;;14.00;12.33;;;;;38.71;22.75;100953.28;5102984;27;45359;-75
2022/06/03 12:48:34;;;;;;;;;11.67;9.67;;;;;38.66;23.30;100959.22;5098020;27;45279;-75
2022/06/03 12:51:17;;;;;;;;;8.00;7.33;;;;;38.53;23.76;100959.56;5097355;27;45385;-75